createdAt,value
2023-01-09T00:01:27.961Z,9.10
2023-01-09T00:03:55.032Z,9.00
2023-01-09T00:06:22.019Z,8.00
2023-01-09T00:08:49.064Z,8.40
2023-01-09T00:13:58.048Z,8.00
2023-01-09T00:16:25.066Z,8.50
2023-01-09T00:18:53.495Z,9.60
2023-01-09T00:21:20.449Z,8.20
2023-01-09T00:23:47.880Z,7.40
2023-01-09T00:26:18.006Z,8.10
2023-01-09T00:28:48.870Z,7.90
2023-01-09T00:31:16.573Z,8.00
2023-01-09T00:33:59.512Z,8.80
2023-01-09T00:36:26.750Z,8.50
2023-01-09T00:38:53.703Z,8.30
2023-01-09T00:41:30.316Z,8.30
2023-01-09T00:43:58.923Z,7.80
2023-01-09T00:46:31.937Z,8.40
2023-01-09T00:48:58.882Z,7.50
2023-01-09T00:51:25.915Z,8.90
2023-01-09T00:53:52.868Z,6.80
2023-01-09T00:56:20.229Z,7.30
2023-01-09T00:58:47.183Z,6.70
2023-01-09T01:01:14.249Z,6.90
2023-01-09T01:03:41.419Z,7.00
2023-01-09T01:06:27.057Z,7.20
2023-01-09T01:08:55.977Z,8.50
2023-01-09T01:11:23.062Z,7.60
2023-01-09T01:13:50.185Z,6.50
2023-01-09T01:16:18.651Z,7.40
2023-01-09T01:18:45.722Z,7.90
2023-01-09T01:21:13.507Z,7.30
2023-01-09T01:23:40.463Z,7.90
2023-01-09T01:26:09.160Z,6.80
2023-01-09T01:28:36.281Z,6.60
2023-01-09T01:31:03.426Z,6.90
2023-01-09T01:33:30.539Z,6.90
2023-01-09T01:36:17.740Z,6.70
2023-01-09T01:38:44.832Z,6.60
2023-01-09T01:41:11.921Z,6.30
2023-01-09T01:43:53.234Z,6.70
2023-01-09T01:46:20.258Z,6.20
2023-01-09T01:48:48.607Z,6.20
2023-01-09T01:51:17.087Z,6.90
2023-01-09T01:53:46.688Z,6.20
2023-01-09T01:56:24.788Z,6.20
2023-01-09T01:59:22.902Z,5.60
2023-01-09T02:01:51.815Z,6.50
2023-01-09T02:04:18.926Z,6.70
2023-01-09T02:06:47.397Z,6.40
2023-01-09T02:09:15.465Z,5.60
2023-01-09T02:11:46.441Z,6.20
2023-01-09T02:14:13.896Z,6.10
2023-01-09T02:16:40.917Z,5.50
2023-01-09T02:19:45.731Z,5.90
2023-01-09T02:22:51.079Z,5.00
2023-01-09T02:25:45.982Z,5.10
2023-01-09T02:28:50.782Z,5.40
2023-01-09T02:31:22.407Z,5.00
2023-01-09T02:34:00.148Z,5.70
2023-01-09T02:36:49.105Z,5.80
2023-01-09T02:39:33.624Z,5.50
2023-01-09T02:42:06.903Z,5.00
2023-01-09T02:44:38.288Z,4.80
2023-01-09T02:47:24.022Z,5.20
2023-01-09T02:49:54.236Z,5.60
2023-01-09T02:52:38.031Z,5.50
2023-01-09T02:55:42.925Z,5.90
2023-01-09T02:58:40.002Z,5.60
2023-01-09T03:01:16.210Z,5.30
2023-01-09T03:03:57.881Z,5.00
2023-01-09T03:06:28.202Z,4.50
2023-01-09T03:08:56.645Z,4.90
2023-01-09T03:11:23.621Z,4.80
2023-01-09T03:14:06.093Z,4.20
2023-01-09T03:16:35.752Z,5.10
2023-01-09T03:19:04.394Z,5.00
2023-01-09T03:21:31.342Z,5.30
2023-01-09T03:23:59.830Z,5.10
2023-01-09T03:26:26.961Z,4.30
2023-01-09T03:28:53.919Z,4.90
2023-01-09T03:31:20.958Z,5.20
2023-01-09T03:33:48.318Z,4.90
2023-01-09T03:36:16.538Z,4.90
2023-01-09T03:38:43.635Z,4.60
2023-01-09T03:41:10.598Z,5.00
2023-01-09T03:43:37.707Z,5.00
2023-01-09T03:46:05.745Z,5.20
2023-01-09T03:48:32.750Z,5.30
2023-01-09T03:50:59.803Z,5.50
2023-01-09T03:53:27.859Z,5.50
2023-01-09T03:55:56.340Z,5.60
2023-01-09T03:58:23.767Z,5.30
2023-01-09T04:00:51.194Z,5.60
2023-01-09T04:03:20.371Z,6.00
2023-01-09T04:05:48.254Z,6.00
2023-01-09T04:08:15.477Z,6.30
2023-01-09T04:10:48.409Z,5.50
2023-01-09T04:13:15.476Z,6.30
2023-01-09T04:15:42.453Z,6.60
2023-01-09T04:18:09.465Z,6.60
2023-01-09T04:20:36.465Z,6.90
2023-01-09T04:23:03.414Z,6.30
2023-01-09T04:25:30.482Z,6.40
2023-01-09T04:27:57.552Z,6.60
2023-01-09T04:30:24.693Z,6.40
2023-01-09T06:07:23.802Z,6.50
2023-01-09T06:09:50.812Z,6.20
2023-01-09T06:12:17.753Z,6.90
2023-01-09T06:14:44.654Z,7.00
2023-01-09T06:17:12.031Z,6.20
2023-01-09T06:19:38.955Z,7.50
2023-01-09T06:22:05.881Z,7.40
2023-01-09T06:24:32.811Z,7.50
2023-01-09T06:26:59.744Z,6.50
2023-01-09T06:29:26.709Z,6.20
2023-01-09T06:31:53.712Z,6.60
2023-01-09T06:34:20.625Z,6.40
2023-01-09T06:36:47.615Z,6.30
2023-01-09T06:39:14.636Z,6.30
2023-01-09T06:41:41.768Z,5.90
2023-01-09T06:44:08.787Z,6.40
2023-01-09T06:46:35.695Z,7.30
2023-01-09T06:49:02.613Z,7.50
2023-01-09T06:51:29.533Z,6.60
2023-01-09T06:53:56.428Z,6.30
2023-01-09T06:56:23.394Z,7.10
2023-01-09T06:58:50.423Z,6.70
2023-01-09T07:01:17.490Z,6.00
2023-01-09T07:03:45.223Z,6.50
2023-01-09T07:06:12.170Z,6.60
2023-01-09T07:08:39.195Z,6.10
2023-01-09T07:11:06.129Z,6.70
2023-01-09T07:13:33.057Z,6.40
2023-01-09T07:16:00.108Z,6.50
2023-01-09T07:18:27.117Z,6.50
2023-01-09T07:20:54.077Z,6.00
2023-01-09T07:23:21.041Z,6.20
2023-01-09T07:25:48.265Z,6.90
2023-01-09T07:28:15.206Z,6.40
2023-01-09T07:30:42.141Z,7.20
2023-01-09T07:33:09.103Z,7.20
2023-01-09T07:35:36.102Z,5.70
2023-01-09T07:38:02.992Z,6.30
2023-01-09T07:40:30.045Z,6.30
2023-01-09T07:42:57.046Z,5.60
2023-01-09T07:45:23.954Z,6.90
2023-01-09T07:47:52.500Z,7.30
2023-01-09T07:50:19.905Z,7.50
2023-01-09T07:52:46.932Z,7.40
2023-01-09T07:55:16.094Z,8.10
2023-01-09T07:57:47.810Z,7.00
2023-01-09T08:00:15.065Z,6.50
2023-01-09T08:02:42.077Z,6.10
2023-01-09T08:05:13.771Z,6.70
2023-01-09T08:07:41.234Z,6.40
2023-01-09T08:10:10.686Z,6.70
2023-01-09T08:12:37.691Z,7.10
2023-01-09T08:15:05.059Z,7.50
2023-01-09T08:17:32.506Z,7.40
2023-01-09T08:19:59.426Z,7.00
2023-01-09T08:22:26.369Z,6.60
2023-01-09T08:24:53.275Z,6.40
2023-01-09T08:27:20.198Z,6.70
2023-01-09T08:29:47.103Z,7.20
2023-01-09T08:32:14.056Z,6.30
2023-01-09T08:34:41.036Z,6.60
2023-01-09T08:37:08.005Z,6.90
2023-01-09T08:39:36.202Z,6.60
2023-01-09T08:42:21.833Z,6.50
2023-01-09T08:45:07.527Z,6.60
2023-01-09T08:47:34.552Z,6.40
2023-01-09T08:50:01.570Z,6.40
2023-01-09T08:52:30.949Z,5.90
2023-01-09T08:54:57.873Z,6.00
2023-01-09T08:57:24.974Z,6.40
2023-01-09T08:59:54.290Z,6.20
2023-01-09T09:02:21.264Z,6.10
2023-01-09T09:04:51.903Z,5.80
2023-01-09T09:07:26.907Z,6.10
2023-01-09T09:09:54.620Z,5.60
2023-01-09T09:12:21.987Z,5.70
2023-01-09T09:15:07.733Z,6.00
2023-01-09T09:17:34.750Z,5.70
2023-01-09T09:20:01.672Z,5.70
2023-01-09T09:22:28.578Z,5.20
2023-01-09T09:24:55.543Z,6.00
2023-01-09T09:27:22.495Z,5.90
2023-01-09T09:29:49.411Z,5.90
2023-01-09T09:32:16.374Z,5.40
2023-01-09T09:34:43.270Z,6.30
2023-01-09T09:37:10.282Z,6.20
2023-01-09T09:39:37.367Z,5.90
2023-01-09T09:42:52.103Z,5.60
2023-01-09T09:45:37.297Z,5.50
2023-01-09T09:48:43.411Z,5.40
2023-01-09T09:51:35.364Z,5.00
2023-01-09T09:54:12.287Z,6.00
2023-01-09T09:56:51.878Z,5.80
2023-01-09T09:59:20.472Z,4.60
2023-01-09T10:02:05.070Z,6.70
2023-01-09T10:04:32.970Z,4.70
2023-01-09T10:07:06.770Z,4.80
2023-01-09T10:09:36.724Z,5.40
2023-01-09T10:12:27.728Z,5.20
2023-01-09T10:15:09.924Z,5.10
2023-01-09T10:20:34.189Z,4.90
2023-01-09T10:23:07.577Z,4.70
2023-01-09T10:26:05.397Z,4.50
2023-01-09T10:28:46.573Z,4.50
2023-01-09T10:31:52.944Z,4.50
2023-01-09T10:34:36.889Z,4.70
2023-01-09T10:37:11.873Z,5.20
2023-01-09T10:39:52.702Z,4.70
2023-01-09T10:42:37.507Z,5.00
2023-01-09T10:45:12.891Z,4.60
2023-01-09T10:47:39.891Z,5.10
2023-01-09T10:50:22.832Z,5.10
2023-01-09T10:52:54.761Z,4.90
2023-01-09T10:55:54.263Z,4.90
2023-01-09T10:58:22.083Z,4.70
2023-01-09T11:00:50.071Z,4.70
2023-01-09T11:03:19.510Z,5.40
2023-01-09T11:05:54.226Z,5.20
2023-01-09T11:08:29.567Z,4.20
2023-01-09T11:11:00.698Z,5.00
2023-01-09T11:13:33.315Z,5.80
2023-01-09T11:16:22.764Z,5.30
2023-01-09T11:18:50.308Z,5.30
2023-01-09T11:21:33.550Z,5.10
2023-01-09T11:24:19.029Z,4.60
2023-01-09T11:26:46.716Z,4.70
2023-01-09T11:29:18.992Z,5.90
2023-01-09T11:31:59.672Z,5.10
2023-01-09T11:34:31.936Z,5.20
2023-01-09T11:37:09.963Z,4.80
2023-01-09T11:39:41.502Z,5.20
2023-01-09T11:42:18.771Z,4.70
2023-01-09T18:22:51.873Z,3.30
2023-01-09T18:25:19.024Z,3.40
2023-01-09T18:27:46.919Z,3.60
2023-01-09T18:30:14.365Z,3.50
2023-01-09T18:32:41.539Z,3.70
2023-01-09T18:35:09.492Z,3.30
2023-01-09T18:37:37.294Z,3.30
2023-01-09T18:40:05.226Z,3.60
2023-01-09T18:42:32.360Z,3.20
2023-01-09T18:44:59.411Z,3.20
2023-01-09T18:47:26.463Z,2.70
2023-01-09T18:49:53.560Z,3.00
2023-01-09T18:52:20.681Z,2.90
2023-01-09T18:54:47.665Z,3.10
2023-01-09T18:57:14.864Z,3.20
2023-01-09T18:59:41.916Z,3.00
2023-01-09T19:02:24.324Z,3.00
2023-01-09T19:04:51.374Z,2.70
2023-01-09T19:07:18.427Z,2.90
2023-01-09T19:09:45.586Z,3.00
2023-01-09T19:12:12.625Z,3.00
2023-01-09T19:14:39.692Z,2.80
2023-01-09T19:17:06.724Z,2.60
2023-01-09T19:19:34.296Z,2.60
2023-01-09T19:22:01.441Z,3.00
2023-01-09T19:24:28.693Z,2.70
2023-01-09T19:26:55.745Z,2.40
2023-01-09T19:29:22.799Z,2.80
2023-01-09T19:31:52.485Z,2.60
2023-01-09T19:34:21.110Z,2.70
2023-01-09T19:36:48.173Z,3.00
2023-01-09T19:39:15.728Z,2.60
2023-01-09T19:41:42.964Z,2.80
2023-01-09T19:44:11.131Z,2.50
2023-01-09T19:46:38.333Z,3.00
2023-01-09T19:49:06.373Z,2.80
2023-01-09T19:51:35.948Z,3.00
2023-01-09T19:56:32.229Z,3.10
2023-01-09T19:59:00.610Z,2.80
2023-01-09T20:01:41.998Z,2.40
2023-01-09T20:04:13.917Z,2.00
2023-01-09T20:06:43.926Z,2.50
2023-01-09T22:39:58.390Z,2.50
2023-01-09T22:42:25.432Z,2.60
2023-01-09T22:44:52.510Z,1.90
2023-01-09T22:47:19.513Z,2.30
2023-01-09T22:49:52.745Z,1.90
2023-01-09T22:52:20.678Z,2.00
2023-01-09T22:54:48.300Z,1.90
2023-01-09T22:57:15.317Z,2.00
2023-01-09T22:59:42.419Z,2.20
2023-01-09T23:02:09.453Z,1.60
2023-01-09T23:04:36.431Z,2.30
2023-01-09T23:07:03.426Z,2.20
2023-01-09T23:09:30.372Z,2.50
2023-01-09T23:12:03.499Z,2.90
2023-01-09T23:14:31.905Z,2.00
2023-01-09T23:16:58.974Z,2.50
2023-01-09T23:19:25.931Z,2.20
2023-01-09T23:21:52.986Z,2.60
2023-01-09T23:24:19.956Z,2.50
2023-01-09T23:26:47.824Z,2.40
2023-01-09T23:29:14.969Z,2.50
2023-01-09T23:31:42.069Z,2.60
2023-01-09T23:34:09.271Z,2.50
2023-01-09T23:36:36.318Z,2.90
2023-01-09T23:39:04.429Z,2.60
2023-01-09T23:41:50.138Z,2.30
2023-01-09T23:44:17.222Z,2.30
2023-01-09T23:46:44.149Z,3.00
2023-01-09T23:49:11.103Z,2.40
2023-01-09T23:51:38.043Z,2.30
2023-01-09T23:54:05.130Z,2.30
2023-01-09T23:56:34.057Z,2.30
2023-01-09T23:59:02.145Z,2.60
